sensor_id;sensor_type;location;lat;lon;timestamp;pressure;altitude;pressure_sealevel;temperature;humidity
77323;BME280;66384;51.052;9.850;2023-01-31T00:00:35;99028.88;;;3.59;68.61
77323;BME280;66384;51.052;9.850;2023-01-31T00:03:04;99034.70;;;3.59;68.09
77323;BME280;66384;51.052;9.850;2023-01-31T00:05:34;99031.27;;;3.59;68.21
77323;BME280;66384;51.052;9.850;2023-01-31T00:08:03;99032.97;;;3.58;68.46
77323;BME280;66384;51.052;9.850;2023-01-31T00:10:33;99030.16;;;3.57;68.70
77323;BME280;66384;51.052;9.850;2023-01-31T00:13:02;99032.67;;;3.56;68.55
77323;BME280;66384;51.052;9.850;2023-01-31T00:15:31;99026.68;;;3.56;68.88
77323;BME280;66384;51.052;9.850;2023-01-31T00:18:00;99029.07;;;3.56;68.89
77323;BME280;66384;51.052;9.850;2023-01-31T00:20:29;99023.48;;;3.56;69.05
77323;BME280;66384;51.052;9.850;2023-01-31T00:22:59;99023.78;;;3.55;69.21
77323;BME280;66384;51.052;9.850;2023-01-31T00:25:29;99025.55;;;3.54;69.61
77323;BME280;66384;51.052;9.850;2023-01-31T00:27:58;99033.70;;;3.54;69.77
77323;BME280;66384;51.052;9.850;2023-01-31T00:30:27;99032.39;;;3.52;70.07
77323;BME280;66384;51.052;9.850;2023-01-31T00:32:56;99037.42;;;3.51;70.30
77323;BME280;66384;51.052;9.850;2023-01-31T00:35:26;99041.68;;;3.48;70.43
77323;BME280;66384;51.052;9.850;2023-01-31T00:37:55;99044.61;;;3.46;70.70
77323;BME280;66384;51.052;9.850;2023-01-31T00:40:24;99047.30;;;3.42;71.21
77323;BME280;66384;51.052;9.850;2023-01-31T00:42:54;99051.79;;;3.38;71.31
77323;BME280;66384;51.052;9.850;2023-01-31T00:45:23;99050.30;;;3.35;71.69
77323;BME280;66384;51.052;9.850;2023-01-31T00:47:52;99041.15;;;3.33;71.94
77323;BME280;66384;51.052;9.850;2023-01-31T00:50:21;99051.52;;;3.31;72.15
77323;BME280;66384;51.052;9.850;2023-01-31T00:52:51;99049.71;;;3.29;72.06
77323;BME280;66384;51.052;9.850;2023-01-31T00:55:20;99058.29;;;3.27;72.41
77323;BME280;66384;51.052;9.850;2023-01-31T00:57:49;99062.39;;;3.25;72.37
77323;BME280;66384;51.052;9.850;2023-01-31T01:00:19;99071.33;;;3.24;72.49
77323;BME280;66384;51.052;9.850;2023-01-31T01:02:49;99074.58;;;3.21;72.39
77323;BME280;66384;51.052;9.850;2023-01-31T01:05:18;99077.69;;;3.19;72.41
77323;BME280;66384;51.052;9.850;2023-01-31T01:07:47;99078.48;;;3.18;72.49
77323;BME280;66384;51.052;9.850;2023-01-31T01:10:17;99081.75;;;3.16;72.09
77323;BME280;66384;51.052;9.850;2023-01-31T01:12:46;99088.77;;;3.17;72.57
77323;BME280;66384;51.052;9.850;2023-01-31T01:15:16;99084.62;;;3.16;72.64
77323;BME280;66384;51.052;9.850;2023-01-31T01:17:45;99091.19;;;3.15;72.61
77323;BME280;66384;51.052;9.850;2023-01-31T01:20:15;99096.72;;;3.13;72.62
77323;BME280;66384;51.052;9.850;2023-01-31T01:22:44;99099.02;;;3.12;72.58
77323;BME280;66384;51.052;9.850;2023-01-31T01:25:13;99097.25;;;3.11;72.39
77323;BME280;66384;51.052;9.850;2023-01-31T01:27:43;99102.73;;;3.09;72.50
77323;BME280;66384;51.052;9.850;2023-01-31T01:30:13;99092.45;;;3.07;72.63
77323;BME280;66384;51.052;9.850;2023-01-31T01:32:42;99090.52;;;3.07;72.57
77323;BME280;66384;51.052;9.850;2023-01-31T01:35:11;99089.98;;;3.06;72.40
77323;BME280;66384;51.052;9.850;2023-01-31T01:37:41;99092.13;;;3.05;72.19
77323;BME280;66384;51.052;9.850;2023-01-31T01:40:12;99093.98;;;3.05;72.14
77323;BME280;66384;51.052;9.850;2023-01-31T01:42:41;99102.89;;;3.03;72.02
77323;BME280;66384;51.052;9.850;2023-01-31T01:45:14;99111.00;;;3.03;72.49
77323;BME280;66384;51.052;9.850;2023-01-31T01:47:48;99111.47;;;3.02;72.39
77323;BME280;66384;51.052;9.850;2023-01-31T01:50:21;99108.48;;;3.01;72.39
77323;BME280;66384;51.052;9.850;2023-01-31T01:52:55;99106.58;;;3.00;72.40
77323;BME280;66384;51.052;9.850;2023-01-31T01:55:27;99099.67;;;2.98;72.36
77323;BME280;66384;51.052;9.850;2023-01-31T01:58:01;99098.39;;;2.96;72.81
77323;BME280;66384;51.052;9.850;2023-01-31T02:00:34;99095.21;;;2.95;72.65
77323;BME280;66384;51.052;9.850;2023-01-31T02:03:06;99088.89;;;2.94;72.51
77323;BME280;66384;51.052;9.850;2023-01-31T02:05:41;99089.57;;;2.94;72.28
77323;BME280;66384;51.052;9.850;2023-01-31T02:08:11;99090.63;;;2.94;72.34
77323;BME280;66384;51.052;9.850;2023-01-31T02:10:43;99104.93;;;2.95;72.14
77323;BME280;66384;51.052;9.850;2023-01-31T02:13:15;99112.59;;;2.95;72.27
77323;BME280;66384;51.052;9.850;2023-01-31T02:15:45;99113.67;;;2.96;72.01
77323;BME280;66384;51.052;9.850;2023-01-31T02:18:16;99115.55;;;2.97;71.95
77323;BME280;66384;51.052;9.850;2023-01-31T02:21:23;99121.05;;;2.98;71.75
77323;BME280;66384;51.052;9.850;2023-01-31T02:24:25;99119.48;;;2.97;71.91
77323;BME280;66384;51.052;9.850;2023-01-31T02:27:17;99118.45;;;2.97;71.59
77323;BME280;66384;51.052;9.850;2023-01-31T02:30:10;99118.49;;;2.95;71.11
77323;BME280;66384;51.052;9.850;2023-01-31T02:32:59;99122.74;;;2.95;71.01
77323;BME280;66384;51.052;9.850;2023-01-31T02:35:41;99126.45;;;2.97;70.88
77323;BME280;66384;51.052;9.850;2023-01-31T02:38:23;99128.76;;;2.99;71.21
77323;BME280;66384;51.052;9.850;2023-01-31T02:41:02;99130.18;;;3.00;70.71
77323;BME280;66384;51.052;9.850;2023-01-31T02:43:40;99137.63;;;2.99;70.67
77323;BME280;66384;51.052;9.850;2023-01-31T02:46:35;99148.98;;;2.99;70.68
77323;BME280;66384;51.052;9.850;2023-01-31T02:49:13;99148.22;;;3.00;70.41
77323;BME280;66384;51.052;9.850;2023-01-31T02:52:05;99145.29;;;3.05;70.12
77323;BME280;66384;51.052;9.850;2023-01-31T02:54:47;99154.67;;;3.11;70.21
77323;BME280;66384;51.052;9.850;2023-01-31T02:57:37;99155.45;;;3.17;70.04
77323;BME280;66384;51.052;9.850;2023-01-31T03:00:11;99160.30;;;3.22;70.00
77323;BME280;66384;51.052;9.850;2023-01-31T03:02:41;99160.41;;;3.27;69.51
77323;BME280;66384;51.052;9.850;2023-01-31T03:05:14;99160.44;;;3.30;69.54
77323;BME280;66384;51.052;9.850;2023-01-31T03:07:47;99162.52;;;3.33;69.52
77323;BME280;66384;51.052;9.850;2023-01-31T03:10:31;99168.30;;;3.36;69.69
77323;BME280;66384;51.052;9.850;2023-01-31T03:13:24;99169.67;;;3.36;69.18
77323;BME280;66384;51.052;9.850;2023-01-31T03:16:03;99168.81;;;3.36;69.26
77323;BME280;66384;51.052;9.850;2023-01-31T03:18:53;99167.75;;;3.35;69.26
77323;BME280;66384;51.052;9.850;2023-01-31T03:21:31;99166.49;;;3.34;69.37
77323;BME280;66384;51.052;9.850;2023-01-31T03:24:05;99174.86;;;3.32;69.44
77323;BME280;66384;51.052;9.850;2023-01-31T03:26:34;99178.15;;;3.30;69.33
77323;BME280;66384;51.052;9.850;2023-01-31T03:29:06;99174.98;;;3.29;69.26
77323;BME280;66384;51.052;9.850;2023-01-31T03:31:40;99173.55;;;3.28;69.46
77323;BME280;66384;51.052;9.850;2023-01-31T03:34:12;99170.02;;;3.26;69.62
77323;BME280;66384;51.052;9.850;2023-01-31T03:36:49;99173.38;;;3.25;69.32
77323;BME280;66384;51.052;9.850;2023-01-31T03:39:31;99168.36;;;3.24;69.24
77323;BME280;66384;51.052;9.850;2023-01-31T03:42:04;99169.63;;;3.24;69.66
77323;BME280;66384;51.052;9.850;2023-01-31T03:44:44;99169.10;;;3.27;69.58
77323;BME280;66384;51.052;9.850;2023-01-31T03:47:19;99170.54;;;3.31;69.49
77323;BME280;66384;51.052;9.850;2023-01-31T03:49:53;99160.95;;;3.35;69.37
77323;BME280;66384;51.052;9.850;2023-01-31T03:52:28;99156.33;;;3.37;68.89
77323;BME280;66384;51.052;9.850;2023-01-31T03:55:04;99157.80;;;3.39;68.70
77323;BME280;66384;51.052;9.850;2023-01-31T03:57:38;99171.53;;;3.41;68.70
77323;BME280;66384;51.052;9.850;2023-01-31T04:00:12;99159.84;;;3.39;68.40
77323;BME280;66384;51.052;9.850;2023-01-31T04:02:43;99164.48;;;3.37;68.34
77323;BME280;66384;51.052;9.850;2023-01-31T04:05:15;99169.91;;;3.34;68.39
77323;BME280;66384;51.052;9.850;2023-01-31T04:07:46;99163.15;;;3.32;68.38
77323;BME280;66384;51.052;9.850;2023-01-31T04:10:17;99158.66;;;3.32;68.59
77323;BME280;66384;51.052;9.850;2023-01-31T04:12:47;99158.53;;;3.29;68.45
77323;BME280;66384;51.052;9.850;2023-01-31T04:15:17;99159.19;;;3.29;68.79
77323;BME280;66384;51.052;9.850;2023-01-31T04:17:46;99149.73;;;3.30;68.55
77323;BME280;66384;51.052;9.850;2023-01-31T04:20:17;99149.14;;;3.31;68.27
77323;BME280;66384;51.052;9.850;2023-01-31T04:22:46;99152.00;;;3.33;68.31
77323;BME280;66384;51.052;9.850;2023-01-31T04:25:15;99150.67;;;3.34;67.67
77323;BME280;66384;51.052;9.850;2023-01-31T04:27:44;99149.77;;;3.33;67.94
77323;BME280;66384;51.052;9.850;2023-01-31T04:30:14;99154.29;;;3.32;67.48
77323;BME280;66384;51.052;9.850;2023-01-31T04:32:44;99154.20;;;3.31;67.93
77323;BME280;66384;51.052;9.850;2023-01-31T04:35:13;99144.70;;;3.28;67.78
77323;BME280;66384;51.052;9.850;2023-01-31T04:37:42;99145.78;;;3.27;67.89
77323;BME280;66384;51.052;9.850;2023-01-31T04:40:13;99140.90;;;3.25;67.92
77323;BME280;66384;51.052;9.850;2023-01-31T04:42:42;99134.50;;;3.23;68.05
77323;BME280;66384;51.052;9.850;2023-01-31T04:45:12;99135.73;;;3.21;67.96
77323;BME280;66384;51.052;9.850;2023-01-31T04:47:42;99144.46;;;3.18;67.99
77323;BME280;66384;51.052;9.850;2023-01-31T04:50:12;99146.11;;;3.18;68.39
77323;BME280;66384;51.052;9.850;2023-01-31T04:52:41;99145.30;;;3.16;68.56
77323;BME280;66384;51.052;9.850;2023-01-31T04:55:11;99138.87;;;3.13;68.37
77323;BME280;66384;51.052;9.850;2023-01-31T04:57:40;99140.56;;;3.11;68.46
77323;BME280;66384;51.052;9.850;2023-01-31T05:00:12;99138.13;;;3.10;68.56
77323;BME280;66384;51.052;9.850;2023-01-31T05:02:41;99142.45;;;3.08;68.20
77323;BME280;66384;51.052;9.850;2023-01-31T05:05:11;99137.48;;;3.07;68.33
77323;BME280;66384;51.052;9.850;2023-01-31T05:07:40;99134.04;;;3.07;68.45
77323;BME280;66384;51.052;9.850;2023-01-31T05:10:12;99134.33;;;3.06;67.94
77323;BME280;66384;51.052;9.850;2023-01-31T05:12:41;99128.00;;;3.05;68.10
77323;BME280;66384;51.052;9.850;2023-01-31T05:15:11;99125.12;;;3.06;67.77
77323;BME280;66384;51.052;9.850;2023-01-31T05:17:41;99126.73;;;3.04;67.54
77323;BME280;66384;51.052;9.850;2023-01-31T05:20:11;99125.96;;;3.03;67.42
77323;BME280;66384;51.052;9.850;2023-01-31T05:22:41;99124.60;;;3.03;67.62
77323;BME280;66384;51.052;9.850;2023-01-31T05:25:10;99121.19;;;3.02;67.54
77323;BME280;66384;51.052;9.850;2023-01-31T05:27:39;99121.70;;;3.03;67.61
77323;BME280;66384;51.052;9.850;2023-01-31T05:30:12;99115.59;;;3.03;67.70
77323;BME280;66384;51.052;9.850;2023-01-31T05:32:41;99115.11;;;3.03;68.08
77323;BME280;66384;51.052;9.850;2023-01-31T05:35:13;99124.63;;;3.03;67.82
77323;BME280;66384;51.052;9.850;2023-01-31T05:37:42;99122.33;;;3.01;67.90
77323;BME280;66384;51.052;9.850;2023-01-31T05:40:15;99121.83;;;3.02;68.12
77323;BME280;66384;51.052;9.850;2023-01-31T05:42:48;99121.48;;;3.02;68.13
77323;BME280;66384;51.052;9.850;2023-01-31T05:45:18;99123.63;;;3.01;68.05
77323;BME280;66384;51.052;9.850;2023-01-31T05:47:48;99124.07;;;3.00;68.41
77323;BME280;66384;51.052;9.850;2023-01-31T05:50:18;99125.10;;;2.97;68.51
77323;BME280;66384;51.052;9.850;2023-01-31T05:52:51;99135.15;;;2.98;68.17
77323;BME280;66384;51.052;9.850;2023-01-31T05:55:21;99139.11;;;2.96;68.43
77323;BME280;66384;51.052;9.850;2023-01-31T05:57:51;99139.54;;;2.94;68.85
77323;BME280;66384;51.052;9.850;2023-01-31T06:00:22;99137.70;;;2.92;68.72
77323;BME280;66384;51.052;9.850;2023-01-31T06:02:51;99137.53;;;2.92;68.75
77323;BME280;66384;51.052;9.850;2023-01-31T06:05:20;99137.38;;;2.92;69.01
77323;BME280;66384;51.052;9.850;2023-01-31T06:07:49;99135.85;;;2.95;68.84
77323;BME280;66384;51.052;9.850;2023-01-31T06:10:19;99132.02;;;2.96;68.98
77323;BME280;66384;51.052;9.850;2023-01-31T06:12:49;99139.30;;;2.99;68.89
77323;BME280;66384;51.052;9.850;2023-01-31T06:15:18;99140.54;;;2.99;68.78
77323;BME280;66384;51.052;9.850;2023-01-31T06:17:47;99146.60;;;3.02;69.05
77323;BME280;66384;51.052;9.850;2023-01-31T06:20:17;99142.48;;;3.03;69.06
77323;BME280;66384;51.052;9.850;2023-01-31T06:22:46;99136.11;;;3.05;68.75
77323;BME280;66384;51.052;9.850;2023-01-31T06:25:15;99132.98;;;3.07;68.75
77323;BME280;66384;51.052;9.850;2023-01-31T06:27:45;99128.11;;;3.07;68.59
77323;BME280;66384;51.052;9.850;2023-01-31T06:30:15;99128.80;;;3.07;68.62
77323;BME280;66384;51.052;9.850;2023-01-31T06:32:44;99132.44;;;3.08;68.58
77323;BME280;66384;51.052;9.850;2023-01-31T06:35:13;99128.77;;;3.09;68.77
77323;BME280;66384;51.052;9.850;2023-01-31T06:37:43;99128.22;;;3.12;68.53
77323;BME280;66384;51.052;9.850;2023-01-31T06:40:13;99132.86;;;3.12;68.99
77323;BME280;66384;51.052;9.850;2023-01-31T06:42:42;99136.15;;;3.11;69.08
77323;BME280;66384;51.052;9.850;2023-01-31T06:45:12;99138.64;;;3.07;69.31
77323;BME280;66384;51.052;9.850;2023-01-31T06:47:42;99134.68;;;3.04;69.67
77323;BME280;66384;51.052;9.850;2023-01-31T06:50:13;99140.75;;;3.00;69.22
77323;BME280;66384;51.052;9.850;2023-01-31T06:52:42;99144.23;;;2.99;69.68
77323;BME280;66384;51.052;9.850;2023-01-31T06:55:12;99144.42;;;2.99;69.65
77323;BME280;66384;51.052;9.850;2023-01-31T06:57:48;99152.23;;;2.99;69.65
77323;BME280;66384;51.052;9.850;2023-01-31T07:00:19;99148.73;;;2.98;69.46
77323;BME280;66384;51.052;9.850;2023-01-31T07:02:49;99151.52;;;2.99;69.38
77323;BME280;66384;51.052;9.850;2023-01-31T07:05:19;99145.79;;;2.99;69.58
77323;BME280;66384;51.052;9.850;2023-01-31T07:07:48;99149.73;;;2.97;69.57
77323;BME280;66384;51.052;9.850;2023-01-31T07:10:18;99146.35;;;2.95;69.55
77323;BME280;66384;51.052;9.850;2023-01-31T07:12:47;99149.06;;;2.94;69.43
77323;BME280;66384;51.052;9.850;2023-01-31T07:15:17;99149.20;;;2.94;69.75
77323;BME280;66384;51.052;9.850;2023-01-31T07:17:46;99142.65;;;2.92;69.72
77323;BME280;66384;51.052;9.850;2023-01-31T07:20:16;99138.29;;;2.93;69.48
77323;BME280;66384;51.052;9.850;2023-01-31T07:22:45;99134.98;;;2.95;69.93
77323;BME280;66384;51.052;9.850;2023-01-31T07:25:21;99121.64;;;2.96;69.63
77323;BME280;66384;51.052;9.850;2023-01-31T07:27:50;99118.98;;;2.97;69.85
77323;BME280;66384;51.052;9.850;2023-01-31T07:30:20;99112.63;;;2.99;69.56
77323;BME280;66384;51.052;9.850;2023-01-31T07:32:49;99118.04;;;3.01;69.98
77323;BME280;66384;51.052;9.850;2023-01-31T07:35:19;99114.11;;;3.04;69.75
77323;BME280;66384;51.052;9.850;2023-01-31T07:37:48;99116.27;;;3.05;69.70
77323;BME280;66384;51.052;9.850;2023-01-31T07:40:19;99109.79;;;3.05;70.07
77323;BME280;66384;51.052;9.850;2023-01-31T07:42:49;99114.06;;;3.05;70.08
77323;BME280;66384;51.052;9.850;2023-01-31T07:45:18;99108.45;;;3.03;70.26
77323;BME280;66384;51.052;9.850;2023-01-31T07:47:47;99116.92;;;3.00;70.14
77323;BME280;66384;51.052;9.850;2023-01-31T07:50:17;99113.02;;;2.97;70.41
77323;BME280;66384;51.052;9.850;2023-01-31T07:52:47;99109.61;;;2.97;71.23
77323;BME280;66384;51.052;9.850;2023-01-31T07:55:17;99108.82;;;3.01;71.31
77323;BME280;66384;51.052;9.850;2023-01-31T07:57:47;99111.64;;;3.02;71.10
77323;BME280;66384;51.052;9.850;2023-01-31T08:00:17;99115.71;;;3.02;71.04
77323;BME280;66384;51.052;9.850;2023-01-31T08:03:10;99113.23;;;3.03;71.13
77323;BME280;66384;51.052;9.850;2023-01-31T08:05:58;99112.35;;;3.05;70.90
77323;BME280;66384;51.052;9.850;2023-01-31T08:08:28;99110.86;;;3.06;71.16
77323;BME280;66384;51.052;9.850;2023-01-31T08:10:57;99102.48;;;3.08;71.03
77323;BME280;66384;51.052;9.850;2023-01-31T08:13:26;99101.61;;;3.15;70.94
77323;BME280;66384;51.052;9.850;2023-01-31T08:15:55;99095.13;;;3.24;70.96
77323;BME280;66384;51.052;9.850;2023-01-31T08:18:25;99094.25;;;3.31;70.82
77323;BME280;66384;51.052;9.850;2023-01-31T08:20:54;99086.88;;;3.39;70.83
77323;BME280;66384;51.052;9.850;2023-01-31T08:23:25;99087.53;;;3.44;70.50
77323;BME280;66384;51.052;9.850;2023-01-31T08:26:00;99094.51;;;3.47;70.67
77323;BME280;66384;51.052;9.850;2023-01-31T08:28:29;99095.50;;;3.49;70.66
77323;BME280;66384;51.052;9.850;2023-01-31T08:30:59;99091.91;;;3.49;70.47
77323;BME280;66384;51.052;9.850;2023-01-31T08:33:28;99085.56;;;3.46;70.66
77323;BME280;66384;51.052;9.850;2023-01-31T08:35:57;99091.20;;;3.43;70.89
77323;BME280;66384;51.052;9.850;2023-01-31T08:38:35;99084.92;;;3.40;70.96
77323;BME280;66384;51.052;9.850;2023-01-31T08:41:05;99080.38;;;3.38;70.74
77323;BME280;66384;51.052;9.850;2023-01-31T08:43:34;99081.58;;;3.38;71.26
77323;BME280;66384;51.052;9.850;2023-01-31T08:46:05;99085.47;;;3.41;71.21
77323;BME280;66384;51.052;9.850;2023-01-31T08:48:35;99085.87;;;3.42;71.29
77323;BME280;66384;51.052;9.850;2023-01-31T08:51:07;99083.24;;;3.41;71.41
77323;BME280;66384;51.052;9.850;2023-01-31T08:53:37;99073.89;;;3.40;71.45
77323;BME280;66384;51.052;9.850;2023-01-31T08:56:09;99074.22;;;3.37;71.54
77323;BME280;66384;51.052;9.850;2023-01-31T08:58:40;99072.05;;;3.35;71.49
77323;BME280;66384;51.052;9.850;2023-01-31T09:01:11;99071.52;;;3.32;71.62
77323;BME280;66384;51.052;9.850;2023-01-31T09:03:41;99070.39;;;3.31;71.67
77323;BME280;66384;51.052;9.850;2023-01-31T09:06:14;99077.20;;;3.31;71.97
77323;BME280;66384;51.052;9.850;2023-01-31T09:08:44;99077.86;;;3.30;71.90
77323;BME280;66384;51.052;9.850;2023-01-31T09:11:14;99081.12;;;3.33;72.10
77323;BME280;66384;51.052;9.850;2023-01-31T09:13:46;99074.20;;;3.40;72.01
77323;BME280;66384;51.052;9.850;2023-01-31T09:16:18;99077.39;;;3.45;72.02
77323;BME280;66384;51.052;9.850;2023-01-31T09:18:48;99076.34;;;3.48;71.79
77323;BME280;66384;51.052;9.850;2023-01-31T09:21:19;99069.36;;;3.45;71.84
77323;BME280;66384;51.052;9.850;2023-01-31T09:23:53;99064.23;;;3.44;71.92
77323;BME280;66384;51.052;9.850;2023-01-31T09:26:22;99057.02;;;3.43;71.80
77323;BME280;66384;51.052;9.850;2023-01-31T09:28:52;99045.85;;;3.41;71.82
77323;BME280;66384;51.052;9.850;2023-01-31T09:31:22;99051.73;;;3.39;71.95
77323;BME280;66384;51.052;9.850;2023-01-31T09:33:51;99044.48;;;3.41;71.81
77323;BME280;66384;51.052;9.850;2023-01-31T09:36:22;99043.41;;;3.42;71.89
77323;BME280;66384;51.052;9.850;2023-01-31T09:38:55;99045.91;;;3.47;72.08
77323;BME280;66384;51.052;9.850;2023-01-31T09:41:28;99044.75;;;3.54;71.94
77323;BME280;66384;51.052;9.850;2023-01-31T09:44:02;99044.52;;;3.61;71.88
77323;BME280;66384;51.052;9.850;2023-01-31T09:46:37;99044.34;;;3.67;71.79
77323;BME280;66384;51.052;9.850;2023-01-31T09:49:13;99040.21;;;3.72;71.67
77323;BME280;66384;51.052;9.850;2023-01-31T09:51:44;99040.83;;;3.74;71.67
77323;BME280;66384;51.052;9.850;2023-01-31T09:54:19;99038.25;;;3.74;71.38
77323;BME280;66384;51.052;9.850;2023-01-31T09:57:03;99029.09;;;3.74;71.35
77323;BME280;66384;51.052;9.850;2023-01-31T09:59:44;99023.98;;;3.77;71.44
77323;BME280;66384;51.052;9.850;2023-01-31T10:02:41;99019.95;;;3.80;71.31
77323;BME280;66384;51.052;9.850;2023-01-31T10:05:21;99005.38;;;3.84;71.41
77323;BME280;66384;51.052;9.850;2023-01-31T10:08:01;99001.48;;;3.91;71.22
77323;BME280;66384;51.052;9.850;2023-01-31T10:10:38;98991.60;;;3.94;70.84
77323;BME280;66384;51.052;9.850;2023-01-31T10:13:13;98985.94;;;3.93;70.71
77323;BME280;66384;51.052;9.850;2023-01-31T10:15:46;98985.45;;;3.90;70.70
77323;BME280;66384;51.052;9.850;2023-01-31T10:18:19;98991.23;;;3.90;70.66
77323;BME280;66384;51.052;9.850;2023-01-31T10:20:53;98994.59;;;3.89;70.88
77323;BME280;66384;51.052;9.850;2023-01-31T10:23:27;99001.92;;;3.86;70.78
77323;BME280;66384;51.052;9.850;2023-01-31T10:26:00;99004.98;;;3.83;70.67
77323;BME280;66384;51.052;9.850;2023-01-31T10:28:35;99005.48;;;3.77;70.79
77323;BME280;66384;51.052;9.850;2023-01-31T10:31:11;99004.58;;;3.71;70.75
77323;BME280;66384;51.052;9.850;2023-01-31T10:33:49;99005.30;;;3.65;70.89
77323;BME280;66384;51.052;9.850;2023-01-31T10:36:25;98993.10;;;3.60;70.91
77323;BME280;66384;51.052;9.850;2023-01-31T10:39:01;98991.36;;;3.57;70.88
77323;BME280;66384;51.052;9.850;2023-01-31T10:41:40;98983.61;;;3.55;71.08
77323;BME280;66384;51.052;9.850;2023-01-31T10:44:19;98982.58;;;3.52;71.16
77323;BME280;66384;51.052;9.850;2023-01-31T10:46:51;98973.01;;;3.48;71.43
77323;BME280;66384;51.052;9.850;2023-01-31T10:49:24;98963.45;;;3.47;71.36
77323;BME280;66384;51.052;9.850;2023-01-31T10:52:20;98961.70;;;3.47;71.33
77323;BME280;66384;51.052;9.850;2023-01-31T10:55:02;98962.95;;;3.45;71.36
77323;BME280;66384;51.052;9.850;2023-01-31T10:57:33;98954.56;;;3.41;71.48
77323;BME280;66384;51.052;9.850;2023-01-31T11:00:03;98952.65;;;3.37;71.54
77323;BME280;66384;51.052;9.850;2023-01-31T11:02:33;98955.98;;;3.36;71.76
77323;BME280;66384;51.052;9.850;2023-01-31T11:05:02;98958.27;;;3.35;71.64
77323;BME280;66384;51.052;9.850;2023-01-31T11:07:32;98958.22;;;3.33;71.84
77323;BME280;66384;51.052;9.850;2023-01-31T11:10:21;98958.33;;;3.33;71.85
77323;BME280;66384;51.052;9.850;2023-01-31T11:12:54;98961.04;;;3.33;71.77
77323;BME280;66384;51.052;9.850;2023-01-31T11:15:26;98943.55;;;3.30;71.84
77323;BME280;66384;51.052;9.850;2023-01-31T11:17:59;98931.52;;;3.28;71.91
77323;BME280;66384;51.052;9.850;2023-01-31T11:20:30;98923.83;;;3.27;72.05
77323;BME280;66384;51.052;9.850;2023-01-31T11:23:02;98912.83;;;3.28;72.04
77323;BME280;66384;51.052;9.850;2023-01-31T11:25:34;98906.86;;;3.30;72.11
77323;BME280;66384;51.052;9.850;2023-01-31T11:28:18;98906.80;;;3.32;72.24
77323;BME280;66384;51.052;9.850;2023-01-31T11:30:50;98905.90;;;3.34;72.17
77323;BME280;66384;51.052;9.850;2023-01-31T11:33:41;98897.09;;;3.35;72.28
77323;BME280;66384;51.052;9.850;2023-01-31T11:36:14;98882.56;;;3.37;72.84
77323;BME280;66384;51.052;9.850;2023-01-31T11:38:44;98883.81;;;3.37;72.64
77323;BME280;66384;51.052;9.850;2023-01-31T11:41:32;98884.75;;;3.39;72.33
77323;BME280;66384;51.052;9.850;2023-01-31T11:44:12;98875.30;;;3.40;72.63
77323;BME280;66384;51.052;9.850;2023-01-31T11:46:49;98869.25;;;3.44;72.53
77323;BME280;66384;51.052;9.850;2023-01-31T11:49:28;98861.41;;;3.47;72.17
77323;BME280;66384;51.052;9.850;2023-01-31T11:51:59;98864.10;;;3.49;72.17
77323;BME280;66384;51.052;9.850;2023-01-31T11:54:31;98858.48;;;3.52;72.26
77323;BME280;66384;51.052;9.850;2023-01-31T11:57:02;98860.27;;;3.54;72.27
77323;BME280;66384;51.052;9.850;2023-01-31T11:59:42;98855.10;;;3.55;72.50
77323;BME280;66384;51.052;9.850;2023-01-31T12:02:23;98843.89;;;3.56;72.50
77323;BME280;66384;51.052;9.850;2023-01-31T12:04:55;98832.54;;;3.57;72.51
77323;BME280;66384;51.052;9.850;2023-01-31T12:07:27;98819.03;;;3.58;72.72
77323;BME280;66384;51.052;9.850;2023-01-31T12:09:57;98813.48;;;3.59;72.85
77323;BME280;66384;51.052;9.850;2023-01-31T12:12:32;98806.04;;;3.60;72.61
77323;BME280;66384;51.052;9.850;2023-01-31T12:15:12;98794.13;;;3.57;72.68
77323;BME280;66384;51.052;9.850;2023-01-31T12:17:44;98778.11;;;3.57;72.79
77323;BME280;66384;51.052;9.850;2023-01-31T12:20:24;98779.40;;;3.56;72.76
77323;BME280;66384;51.052;9.850;2023-01-31T12:23:12;98781.41;;;3.55;72.70
77323;BME280;66384;51.052;9.850;2023-01-31T12:25:55;98786.09;;;3.53;72.95
77323;BME280;66384;51.052;9.850;2023-01-31T12:28:40;98785.00;;;3.52;72.64
77323;BME280;66384;51.052;9.850;2023-01-31T12:31:52;98780.97;;;3.50;72.78
77323;BME280;66384;51.052;9.850;2023-01-31T12:34:32;98775.42;;;3.48;72.64
77323;BME280;66384;51.052;9.850;2023-01-31T12:37:19;98767.14;;;3.49;72.65
77323;BME280;66384;51.052;9.850;2023-01-31T12:40:01;98764.04;;;3.48;72.64
77323;BME280;66384;51.052;9.850;2023-01-31T12:42:46;98762.42;;;3.49;72.57
77323;BME280;66384;51.052;9.850;2023-01-31T12:45:31;98755.02;;;3.51;72.62
77323;BME280;66384;51.052;9.850;2023-01-31T12:48:34;98740.47;;;3.53;72.67
77323;BME280;66384;51.052;9.850;2023-01-31T12:51:20;98740.65;;;3.55;72.52
77323;BME280;66384;51.052;9.850;2023-01-31T12:53:59;98727.27;;;3.57;72.28
77323;BME280;66384;51.052;9.850;2023-01-31T12:56:44;98726.55;;;3.59;72.52
77323;BME280;66384;51.052;9.850;2023-01-31T12:59:25;98729.88;;;3.61;72.20
77323;BME280;66384;51.052;9.850;2023-01-31T13:02:13;98730.94;;;3.65;72.33
77323;BME280;66384;51.052;9.850;2023-01-31T13:04:47;98738.48;;;3.66;72.03
77323;BME280;66384;51.052;9.850;2023-01-31T13:07:23;98741.75;;;3.67;72.08
77323;BME280;66384;51.052;9.850;2023-01-31T13:09:54;98752.70;;;3.68;72.42
77323;BME280;66384;51.052;9.850;2023-01-31T13:12:28;98759.43;;;3.70;72.32
77323;BME280;66384;51.052;9.850;2023-01-31T13:15:03;98757.45;;;3.71;72.31
77323;BME280;66384;51.052;9.850;2023-01-31T13:17:36;98754.47;;;3.72;72.23
77323;BME280;66384;51.052;9.850;2023-01-31T13:20:27;98744.09;;;3.72;72.27
77323;BME280;66384;51.052;9.850;2023-01-31T13:23:00;98742.76;;;3.72;72.39
77323;BME280;66384;51.052;9.850;2023-01-31T13:25:36;98731.41;;;3.74;72.31
77323;BME280;66384;51.052;9.850;2023-01-31T13:28:14;98725.48;;;3.77;72.11
77323;BME280;66384;51.052;9.850;2023-01-31T13:30:49;98719.73;;;3.78;72.38
77323;BME280;66384;51.052;9.850;2023-01-31T13:33:28;98716.09;;;3.77;72.11
77323;BME280;66384;51.052;9.850;2023-01-31T13:36:05;98719.98;;;3.76;72.26
77323;BME280;66384;51.052;9.850;2023-01-31T13:38:38;98716.38;;;3.76;72.49
77323;BME280;66384;51.052;9.850;2023-01-31T13:41:11;98718.33;;;3.77;72.47
77323;BME280;66384;51.052;9.850;2023-01-31T13:43:42;98722.55;;;3.77;72.72